createdAt,value
2018-12-09T00:00:44.577Z,93.3
2018-12-09T00:01:56.882Z,93.8
2018-12-09T00:03:08.969Z,94.7
2018-12-09T00:04:21.173Z,95.1
2018-12-09T00:05:33.402Z,95.4
2018-12-09T00:06:45.651Z,95.8
2018-12-09T00:07:57.817Z,95.6
2018-12-09T00:09:09.940Z,95.9
2018-12-09T00:10:22.238Z,96
2018-12-09T00:11:34.342Z,96.2
2018-12-09T00:12:46.600Z,96.5
2018-12-09T00:13:58.783Z,96.7
2018-12-09T00:15:10.911Z,96.6
2018-12-09T00:16:23.118Z,96.5
2018-12-09T00:17:35.397Z,96.8
2018-12-09T00:18:47.597Z,96.9
2018-12-09T00:19:59.798Z,97.1
2018-12-09T00:21:11.915Z,97
2018-12-09T00:22:24.290Z,97.1
2018-12-09T00:23:36.358Z,97.1
2018-12-09T00:24:48.480Z,97.2
2018-12-09T00:26:00.682Z,97.3
2018-12-09T00:27:12.880Z,97.3
2018-12-09T00:28:25.113Z,97.4
2018-12-09T00:29:37.377Z,97.5
2018-12-09T00:30:49.616Z,97.5
2018-12-09T00:32:01.749Z,97.5
2018-12-09T00:33:13.851Z,97.5
2018-12-09T00:34:26.115Z,97.4
2018-12-09T00:35:38.311Z,97.3
2018-12-09T00:36:50.446Z,97.4
2018-12-09T00:38:02.699Z,97.2
2018-12-09T00:39:14.830Z,97.3
2018-12-09T00:40:27.019Z,97.3
2018-12-09T00:41:39.290Z,97.3
2018-12-09T00:42:51.575Z,97.3
2018-12-09T00:44:03.690Z,97.2
2018-12-09T00:45:15.805Z,97
2018-12-09T00:46:28.072Z,97
2018-12-09T00:47:40.512Z,97
2018-12-09T00:48:52.392Z,96.9
2018-12-09T00:50:04.653Z,96.9
2018-12-09T00:51:16.900Z,96.9
2018-12-09T00:52:29.094Z,96.8
2018-12-09T00:53:41.176Z,96.5
2018-12-09T00:54:53.539Z,96.2
2018-12-09T00:56:05.637Z,96.2
2018-12-09T00:57:17.757Z,96.5
2018-12-09T00:58:29.948Z,96
2018-12-09T00:59:42.147Z,95.8
2018-12-09T01:00:54.349Z,95.3
2018-12-09T01:02:06.531Z,95.2
2018-12-09T01:03:18.825Z,95.1
2018-12-09T01:04:30.918Z,94.9
2018-12-09T01:05:43.289Z,95
2018-12-09T01:06:55.415Z,94.7
2018-12-09T01:08:07.574Z,94.8
2018-12-09T01:09:19.719Z,94.1
2018-12-09T01:10:31.904Z,94
2018-12-09T01:11:44.114Z,94.1
2018-12-09T01:12:56.295Z,94
2018-12-09T01:14:08.558Z,94
2018-12-09T01:15:20.758Z,93.6
2018-12-09T01:16:32.966Z,93.8
2018-12-09T01:17:45.077Z,93.7
2018-12-09T01:18:57.439Z,93.7
2018-12-09T01:20:09.487Z,93.4
2018-12-09T01:21:21.672Z,93.2
2018-12-09T01:22:33.857Z,93.4
2018-12-09T01:23:46.129Z,93.3
2018-12-09T01:24:58.355Z,93.1
2018-12-09T01:26:10.548Z,92.9
2018-12-09T01:27:23.307Z,92.6
2018-12-09T01:28:36.463Z,92.5
2018-12-09T01:29:47.027Z,92.6
2018-12-09T01:30:59.411Z,92.3
2018-12-09T01:32:11.501Z,92.7
2018-12-09T01:33:23.606Z,92.6
2018-12-09T01:34:35.825Z,92.8
2018-12-09T01:35:48.079Z,92.8
2018-12-09T01:37:00.202Z,93.1
2018-12-09T01:38:12.401Z,93.1
2018-12-09T01:39:24.593Z,92.3
2018-12-09T01:40:36.868Z,92.2
2018-12-09T01:41:48.983Z,92.2
2018-12-09T01:43:01.347Z,91.8
2018-12-09T01:44:13.382Z,92.9
2018-12-09T01:45:25.788Z,92.7
2018-12-09T01:46:37.833Z,92.3
2018-12-09T01:47:49.966Z,92.7
2018-12-09T01:49:02.224Z,92.5
2018-12-09T01:50:14.369Z,92.3
2018-12-09T01:51:26.549Z,91.6
2018-12-09T01:52:38.748Z,92.5
2018-12-09T01:53:51.008Z,91.9
2018-12-09T01:55:05.212Z,91.3
2018-12-09T01:56:15.491Z,91.6
2018-12-09T01:57:27.517Z,91.5
2018-12-09T01:58:39.788Z,90.9
2018-12-09T01:59:51.995Z,91.1
2018-12-09T02:01:04.195Z,91
2018-12-09T02:02:16.386Z,90.5
2018-12-09T02:03:28.588Z,91.1
2018-12-09T02:04:40.822Z,90.7
2018-12-09T02:05:52.964Z,91.1
2018-12-09T02:07:05.186Z,90.9
2018-12-09T02:08:17.286Z,91
2018-12-09T02:09:29.489Z,90.4
2018-12-09T02:10:41.784Z,89.8
2018-12-09T02:11:53.979Z,90.3
2018-12-09T02:13:06.070Z,90.7
2018-12-09T02:14:18.346Z,89.6
2018-12-09T02:15:30.626Z,90
2018-12-09T02:16:42.658Z,90.5
2018-12-09T02:17:54.917Z,90.6
2018-12-09T02:19:07.136Z,91.4
2018-12-09T02:20:19.313Z,91.3
2018-12-09T02:21:31.517Z,91.1
2018-12-09T02:22:43.630Z,90.7
2018-12-09T02:23:55.901Z,90.2
2018-12-09T02:25:08.023Z,89.9
2018-12-09T02:26:20.205Z,90.4
2018-12-09T02:27:32.494Z,89.7
2018-12-09T02:28:44.691Z,90
2018-12-09T02:29:56.819Z,90.3
2018-12-09T02:31:09.085Z,90.3
2018-12-09T02:32:21.210Z,89
2018-12-09T02:33:33.460Z,90.3
2018-12-09T02:34:45.582Z,90.3
2018-12-09T02:35:57.775Z,90.1
2018-12-09T02:37:10.068Z,89.5
2018-12-09T02:38:22.264Z,89
2018-12-09T02:39:34.427Z,89.6
2018-12-09T02:40:46.564Z,90.1
2018-12-09T02:41:58.822Z,90.4
2018-12-09T02:43:11.049Z,89.1
2018-12-09T02:44:23.220Z,89.8
2018-12-09T02:45:35.426Z,90.1
2018-12-09T02:46:47.528Z,90
2018-12-09T02:47:59.737Z,89.7
2018-12-09T02:49:11.995Z,89.6
2018-12-09T02:50:24.134Z,89.6
2018-12-09T02:51:36.325Z,89.8
2018-12-09T02:52:48.512Z,90.2
2018-12-09T02:54:00.713Z,89.6
2018-12-09T02:55:12.970Z,89.9
2018-12-09T02:56:25.184Z,89.8
2018-12-09T02:57:37.302Z,90.5
2018-12-09T02:58:49.496Z,89.6
2018-12-09T03:00:01.705Z,89.4
2018-12-09T03:01:13.875Z,90.1
2018-12-09T03:02:26.133Z,90.3
2018-12-09T03:03:38.359Z,89.7
2018-12-09T03:04:50.545Z,89.7
2018-12-09T03:06:02.656Z,89.5
2018-12-09T03:07:15.026Z,89.3
2018-12-09T03:08:27.173Z,89.2
2018-12-09T03:09:39.244Z,89.4
2018-12-09T03:10:51.428Z,88.9
2018-12-09T03:12:03.621Z,89.9
2018-12-09T03:13:15.895Z,90
2018-12-09T03:14:28.089Z,89.5
2018-12-09T03:15:40.291Z,89.4
2018-12-09T03:16:52.410Z,90.1
2018-12-09T03:18:04.596Z,91.2
2018-12-09T03:19:16.889Z,92
2018-12-09T03:20:28.975Z,92.5
2018-12-09T03:21:41.241Z,93
2018-12-09T03:22:53.435Z,93.4
2018-12-09T03:24:06.954Z,93.6
2018-12-09T03:25:17.755Z,94
2018-12-09T03:26:30.036Z,94.4
2018-12-09T03:27:42.209Z,94.6
2018-12-09T03:28:54.424Z,94.3
2018-12-09T03:30:06.621Z,94.6
2018-12-09T03:31:18.910Z,94.4
2018-12-09T03:32:30.995Z,94.5
2018-12-09T03:33:43.178Z,94.7
2018-12-09T03:34:55.317Z,95.1
2018-12-09T03:36:07.609Z,95.3
2018-12-09T03:37:19.698Z,95.4
2018-12-09T03:38:31.900Z,95.5
2018-12-09T03:39:44.174Z,95.7
2018-12-09T03:40:56.353Z,95.9
2018-12-09T03:42:08.540Z,96.3
2018-12-09T03:43:20.746Z,96.4
2018-12-09T03:44:33.018Z,96.5
2018-12-09T03:45:45.122Z,96.6
2018-12-09T03:46:57.246Z,96.8
2018-12-09T03:48:09.509Z,96.9
2018-12-09T03:49:21.797Z,97
2018-12-09T03:50:35.026Z,97.1
2018-12-09T03:51:46.018Z,97.2
2018-12-09T03:52:58.284Z,97.3
2018-12-09T03:54:10.398Z,97.4
2018-12-09T03:55:22.772Z,97.5
2018-12-09T03:56:34.875Z,97.3
2018-12-09T03:57:47.003Z,97.4
2018-12-09T03:58:59.171Z,97.4
2018-12-09T04:00:11.454Z,97.4
2018-12-09T04:01:23.565Z,97.5
2018-12-09T04:02:35.759Z,97.7
2018-12-09T04:03:47.966Z,97.7
2018-12-09T04:05:00.165Z,97.8
2018-12-09T04:06:12.411Z,97.8
2018-12-09T04:07:24.630Z,97.8
2018-12-09T04:08:36.814Z,97.9
2018-12-09T04:09:49.028Z,98
2018-12-09T04:11:01.163Z,98.1
2018-12-09T04:12:13.391Z,98.1
2018-12-09T04:13:25.578Z,98.1
2018-12-09T04:14:37.787Z,98.2
2018-12-09T04:15:49.908Z,98.3
2018-12-09T04:17:02.173Z,98.3
2018-12-09T04:18:14.358Z,98.4
2018-12-09T04:19:26.657Z,98.4
2018-12-09T04:20:38.685Z,98.5
2018-12-09T04:21:50.927Z,98.5
2018-12-09T04:23:03.119Z,98.7
2018-12-09T04:24:15.947Z,98.7
2018-12-09T04:25:27.439Z,98.8
2018-12-09T04:26:39.635Z,98.8
2018-12-09T04:27:51.851Z,98.8
2018-12-09T04:29:04.109Z,98.9
2018-12-09T04:30:16.284Z,99
2018-12-09T04:31:28.574Z,99
2018-12-09T04:32:40.709Z,99
2018-12-09T04:33:52.865Z,99.1
2018-12-09T04:35:05.081Z,99.1
2018-12-09T04:36:17.187Z,99.1
2018-12-09T04:37:30.518Z,99.1
2018-12-09T04:38:41.574Z,99.2
2018-12-09T04:39:53.767Z,99.2
2018-12-09T04:41:05.974Z,99.2
2018-12-09T04:42:18.224Z,99.2
2018-12-09T04:43:30.440Z,99.3
2018-12-09T04:44:42.543Z,99.3
2018-12-09T04:45:54.762Z,99.3
2018-12-09T04:47:06.931Z,99.3
2018-12-09T04:48:19.196Z,99.3
2018-12-09T04:49:31.423Z,99.3
2018-12-09T04:50:43.506Z,99.3
2018-12-09T04:51:55.817Z,99.4
2018-12-09T04:53:07.888Z,99.4
2018-12-09T04:54:20.183Z,99.4
2018-12-09T04:55:32.489Z,99.4
2018-12-09T04:56:44.546Z,99.4
2018-12-09T04:57:56.774Z,99.4
2018-12-09T04:59:08.884Z,99.4
2018-12-09T05:00:21.150Z,99.4
2018-12-09T05:01:33.295Z,99.5
2018-12-09T05:02:45.513Z,99.5
2018-12-09T05:03:57.642Z,99.5
2018-12-09T05:05:09.831Z,99.5
2018-12-09T05:06:22.115Z,99.5
2018-12-09T05:07:34.317Z,99.5
2018-12-09T05:08:46.415Z,99.5
2018-12-09T05:09:58.701Z,99.5
2018-12-09T05:11:10.810Z,99.5
2018-12-09T05:12:23.003Z,99.5
2018-12-09T05:13:35.193Z,99.6
2018-12-09T05:14:47.488Z,99.6
2018-12-09T05:15:59.578Z,99.6
2018-12-09T05:17:11.892Z,99.6
2018-12-09T05:18:23.974Z,99.6
2018-12-09T05:19:36.261Z,99.6
2018-12-09T05:20:48.427Z,99.6
2018-12-09T05:22:00.624Z,99.6
2018-12-09T05:23:12.822Z,99.6
2018-12-09T05:24:25.027Z,99.6
2018-12-09T05:25:37.129Z,99.6
2018-12-09T05:26:49.394Z,99.6
2018-12-09T05:28:01.592Z,99.6
2018-12-09T05:29:13.708Z,99.6
2018-12-09T05:30:25.905Z,99.5
2018-12-09T05:31:38.191Z,99.5
2018-12-09T05:32:50.366Z,99.5
2018-12-09T05:34:02.539Z,99.5
2018-12-09T05:35:14.674Z,99.4
2018-12-09T05:36:26.890Z,99.4
2018-12-09T05:37:39.070Z,99.3
2018-12-09T05:38:51.351Z,99.2
2018-12-09T05:40:03.608Z,99.1
2018-12-09T05:41:15.700Z,99
2018-12-09T05:42:27.837Z,98.7
2018-12-09T05:43:40.130Z,98.7
2018-12-09T05:44:52.238Z,98.5
2018-12-09T05:46:04.421Z,98.3
2018-12-09T05:47:16.696Z,98.2
2018-12-09T05:48:28.886Z,98.2
2018-12-09T05:49:41.070Z,98.2
2018-12-09T05:50:53.312Z,98.2
2018-12-09T05:52:05.391Z,98.3
2018-12-09T05:53:17.591Z,98.3
2018-12-09T05:54:29.783Z,98.4
2018-12-09T05:55:42.142Z,98.4
2018-12-09T05:56:54.200Z,98.5
2018-12-09T05:58:06.360Z,98.5
2018-12-09T05:59:18.551Z,98.7
2018-12-09T06:00:30.825Z,98.7
2018-12-09T06:01:43.010Z,98.8
2018-12-09T06:02:55.160Z,98.8
2018-12-09T06:04:07.419Z,98.8
2018-12-09T06:05:19.594Z,98.9
2018-12-09T06:06:31.830Z,98.9
2018-12-09T06:07:44.072Z,99
2018-12-09T06:08:56.107Z,99
2018-12-09T06:10:08.323Z,99
2018-12-09T06:11:20.570Z,99
2018-12-09T06:12:32.689Z,99.1
2018-12-09T06:13:45.225Z,99.1
2018-12-09T06:14:57.142Z,99.1
2018-12-09T06:16:09.341Z,99.2
2018-12-09T06:17:21.477Z,99.2
2018-12-09T06:18:33.823Z,99.2
2018-12-09T06:19:45.943Z,99.2
2018-12-09T06:20:58.071Z,99.3
2018-12-09T06:22:10.318Z,99.3
2018-12-09T06:23:22.540Z,99.3
2018-12-09T06:24:34.747Z,99.3
2018-12-09T06:25:46.882Z,99.3
2018-12-09T06:26:59.086Z,99.4
2018-12-09T06:28:11.234Z,99.4
2018-12-09T06:29:23.471Z,99.4
2018-12-09T06:30:35.871Z,99.4
2018-12-09T06:31:50.073Z,99.4
2018-12-09T06:32:59.971Z,99.4
2018-12-09T06:34:12.175Z,99.4
2018-12-09T06:35:24.478Z,99.4
2018-12-09T06:36:36.556Z,99.5
2018-12-09T06:37:48.756Z,99.5
2018-12-09T06:39:01.014Z,99.4
2018-12-09T06:40:13.145Z,99.4
2018-12-09T06:41:25.336Z,99.4
2018-12-09T06:42:37.610Z,99.4
2018-12-09T06:43:49.811Z,99.3
2018-12-09T06:45:02.039Z,99.2
2018-12-09T06:46:14.187Z,99.1
2018-12-09T06:47:26.310Z,99
2018-12-09T06:48:38.501Z,98.8
2018-12-09T06:49:50.687Z,98.5
2018-12-09T06:51:02.972Z,98.3
2018-12-09T06:52:15.075Z,98.2
2018-12-09T06:53:27.749Z,98.1
2018-12-09T06:54:39.573Z,98
2018-12-09T06:55:51.864Z,98
2018-12-09T06:57:04.988Z,97.9
2018-12-09T06:58:16.126Z,97.9
2018-12-09T06:59:28.325Z,97.8
2018-12-09T07:00:40.436Z,97.7
2018-12-09T07:01:52.712Z,97.6
2018-12-09T07:03:08.037Z,97.7
2018-12-09T07:04:17.014Z,97.7
2018-12-09T07:05:29.209Z,97.6
2018-12-09T07:06:41.406Z,97.6
2018-12-09T07:07:53.814Z,97.7
2018-12-09T07:09:05.868Z,97.7
2018-12-09T07:10:18.068Z,97.6
2018-12-09T07:11:30.178Z,97.5
2018-12-09T07:12:42.370Z,97.5
2018-12-09T07:13:54.568Z,97.5
2018-12-09T07:15:06.847Z,97.5
2018-12-09T07:16:19.022Z,97.5
2018-12-09T07:17:31.149Z,97.5
2018-12-09T07:18:43.474Z,97.3
2018-12-09T07:19:55.750Z,97.2
2018-12-09T07:21:07.808Z,97
2018-12-09T07:22:19.991Z,97.1
2018-12-09T07:23:32.266Z,96.8
2018-12-09T07:24:44.387Z,96.8
2018-12-09T07:25:56.581Z,96.8
2018-12-09T07:27:08.703Z,96.9
2018-12-09T07:28:20.896Z,96.8
2018-12-09T07:29:33.087Z,96.8
2018-12-09T07:30:45.354Z,96.6
2018-12-09T07:31:57.568Z,96.7
2018-12-09T07:33:09.759Z,96.5
2018-12-09T07:34:21.861Z,96.3
2018-12-09T07:35:34.222Z,96.4
2018-12-09T07:36:46.241Z,96.3
2018-12-09T07:37:58.520Z,96.2
2018-12-09T07:39:10.685Z,96.2
2018-12-09T07:40:22.916Z,96.3
2018-12-09T07:41:35.101Z,96.4
2018-12-09T07:42:47.297Z,96.1
2018-12-09T07:43:59.583Z,96.1
2018-12-09T07:45:11.614Z,95.9
2018-12-09T07:46:23.801Z,96
2018-12-09T07:47:36.068Z,96
2018-12-09T07:48:48.260Z,96.2
2018-12-09T07:50:00.388Z,96.4
2018-12-09T07:51:12.649Z,96.5
2018-12-09T07:52:24.870Z,96.5
2018-12-09T07:53:36.958Z,96.4
2018-12-09T07:54:49.232Z,96.4
2018-12-09T07:56:01.441Z,96
2018-12-09T07:57:13.627Z,96
2018-12-09T07:58:25.811Z,95.6
2018-12-09T07:59:38.020Z,95.4
2018-12-09T08:00:50.224Z,95.5
2018-12-09T08:02:02.394Z,95.6
2018-12-09T08:03:14.521Z,95.4
2018-12-09T08:04:27.374Z,95.5
2018-12-09T08:05:38.902Z,95.4
2018-12-09T08:06:51.168Z,95.6
2018-12-09T08:08:03.466Z,95.4
2018-12-09T08:09:15.582Z,95.6
2018-12-09T08:10:27.677Z,95.7
2018-12-09T08:11:39.904Z,95.6
2018-12-09T08:12:52.143Z,95.3
2018-12-09T08:14:04.323Z,95.2
2018-12-09T08:15:16.542Z,95.2
2018-12-09T08:16:32.218Z,95.1
2018-12-09T08:17:40.893Z,95.3
2018-12-09T08:18:53.037Z,95.3
2018-12-09T08:20:05.392Z,95.5
2018-12-09T08:21:17.428Z,95.1
2018-12-09T08:22:29.681Z,95
2018-12-09T08:23:41.853Z,94.8
2018-12-09T08:24:54.013Z,94.7
2018-12-09T08:26:06.271Z,94.6
2018-12-09T08:27:18.469Z,94.3
2018-12-09T08:28:30.580Z,94
2018-12-09T08:29:42.778Z,94.3
2018-12-09T08:30:54.971Z,94.7
2018-12-09T08:32:07.256Z,94.4
2018-12-09T08:33:19.451Z,94.3
2018-12-09T08:34:31.617Z,94.5
2018-12-09T08:35:43.885Z,94.5
2018-12-09T08:36:56.028Z,94.7
2018-12-09T08:38:08.127Z,94.8
2018-12-09T08:39:20.391Z,94.7
2018-12-09T08:40:32.523Z,94.8
2018-12-09T08:41:44.730Z,94.5
2018-12-09T08:42:57.036Z,94.8
2018-12-09T08:44:09.187Z,94.2
2018-12-09T08:45:21.443Z,94.1
2018-12-09T08:46:33.496Z,94.2
2018-12-09T08:47:45.677Z,94
2018-12-09T08:48:57.878Z,94.4
2018-12-09T08:50:10.156Z,94.5
2018-12-09T08:51:22.292Z,95
2018-12-09T08:53:46.735Z,93.9
2018-12-09T08:54:58.852Z,94.4
2018-12-09T08:56:11.195Z,94.3
2018-12-09T08:57:23.310Z,94.1
2018-12-09T08:58:35.439Z,94
2018-12-09T08:59:47.714Z,94.1
2018-12-09T09:00:59.880Z,94.4
2018-12-09T09:02:12.032Z,94
2018-12-09T09:03:24.200Z,93.4
2018-12-09T09:04:36.471Z,94
2018-12-09T09:05:49.859Z,94.2
2018-12-09T09:07:00.886Z,94.3
2018-12-09T09:08:13.131Z,93.9
2018-12-09T09:09:25.200Z,93.7
2018-12-09T09:10:37.455Z,93.7
2018-12-09T09:11:49.693Z,94.1
2018-12-09T09:13:01.824Z,94.3
2018-12-09T09:14:14.017Z,93.7
2018-12-09T09:15:26.315Z,93.5
2018-12-09T09:16:38.424Z,93.8
2018-12-09T09:17:50.519Z,93.5
2018-12-09T09:19:05.029Z,93.4
2018-12-09T09:20:15.092Z,93.5
2018-12-09T09:21:27.109Z,93.7
2018-12-09T09:22:39.380Z,93.9
2018-12-09T09:23:51.493Z,93.8
2018-12-09T09:25:03.731Z,93.4
2018-12-09T09:26:16.030Z,93.1
2018-12-09T09:27:28.073Z,93.4
2018-12-09T09:28:40.285Z,93.4
2018-12-09T09:29:52.461Z,93.5
2018-12-09T09:31:04.657Z,93.5
2018-12-09T09:32:17.225Z,93.7
2018-12-09T09:33:29.050Z,93.6
2018-12-09T09:34:41.293Z,93.9
2018-12-09T09:35:53.612Z,94.2
2018-12-09T09:37:05.691Z,94.4
2018-12-09T09:38:17.890Z,94.2
2018-12-09T09:39:30.543Z,94.1
2018-12-09T09:40:42.359Z,94.2
2018-12-09T09:41:54.396Z,94.4
2018-12-09T09:43:06.597Z,94.4
2018-12-09T09:44:18.961Z,94.4
2018-12-09T09:45:31.159Z,94.7
2018-12-09T09:46:43.167Z,94.8
2018-12-09T09:47:55.458Z,94.5
2018-12-09T09:49:07.555Z,94.5
2018-12-09T09:50:19.842Z,94.2
2018-12-09T09:51:32.054Z,94.2
2018-12-09T09:52:44.213Z,94.4
2018-12-09T09:53:56.404Z,94.2
2018-12-09T09:55:08.526Z,94.2
2018-12-09T09:56:20.884Z,94.2
2018-12-09T09:57:32.918Z,94.2
2018-12-09T09:58:45.295Z,94.4
2018-12-09T09:59:57.486Z,94.6
2018-12-09T10:01:09.567Z,94.8
2018-12-09T10:02:21.783Z,94.8
2018-12-09T10:03:33.958Z,95.1
2018-12-09T10:04:46.150Z,95.3
2018-12-09T10:05:58.275Z,95.3
2018-12-09T10:07:10.551Z,95.4
2018-12-09T10:08:22.872Z,95.5
2018-12-09T10:09:34.926Z,95.3
2018-12-09T10:10:47.115Z,95.3
2018-12-09T10:11:59.274Z,95.5
2018-12-09T10:13:11.438Z,95.4
2018-12-09T10:14:23.860Z,95.5
2018-12-09T10:15:35.888Z,95.1
2018-12-09T10:16:48.113Z,95.3
2018-12-09T10:18:00.233Z,95.6
2018-12-09T10:19:12.499Z,95.7
2018-12-09T10:20:24.736Z,95.6
2018-12-09T10:21:36.863Z,95.5
2018-12-09T10:22:48.984Z,95.4
2018-12-09T10:24:01.178Z,95.5
2018-12-09T10:25:13.405Z,95.5
2018-12-09T10:26:25.635Z,95.4
2018-12-09T10:27:37.841Z,95.4
2018-12-09T10:28:50.016Z,95.6
2018-12-09T10:30:02.143Z,95.4
2018-12-09T10:31:14.342Z,95.5
2018-12-09T10:32:26.785Z,95.5
2018-12-09T10:33:38.741Z,95.3
2018-12-09T10:34:50.925Z,95.3
2018-12-09T10:36:03.223Z,95.3
2018-12-09T10:37:15.387Z,95.4
2018-12-09T10:38:27.602Z,95.2
2018-12-09T10:39:39.690Z,95.2
2018-12-09T10:40:52.011Z,95.3
2018-12-09T10:42:04.801Z,95
2018-12-09T10:43:16.449Z,95.1
2018-12-09T10:44:28.628Z,94.9
2018-12-09T10:45:40.760Z,95
2018-12-09T10:46:52.962Z,94.8
2018-12-09T10:48:05.172Z,94.7
2018-12-09T10:49:17.323Z,94.5
2018-12-09T10:50:29.517Z,94.3
2018-12-09T10:51:41.664Z,94.4
2018-12-09T10:52:54.017Z,94
2018-12-09T10:54:06.023Z,94.2
2018-12-09T10:55:18.296Z,94.1
2018-12-09T10:56:30.586Z,93.6
2018-12-09T10:57:42.769Z,93.1
2018-12-09T10:58:54.800Z,93.2
2018-12-09T11:00:07.064Z,93.3
2018-12-09T11:01:19.266Z,93.2
2018-12-09T11:02:31.458Z,93.4
2018-12-09T11:03:43.640Z,93.3
2018-12-09T11:04:55.928Z,93.6
2018-12-09T11:06:08.042Z,93.5
2018-12-09T11:07:20.249Z,93.4
2018-12-09T11:08:32.524Z,92.7
2018-12-09T11:09:44.675Z,93
2018-12-09T11:10:56.843Z,93.2
2018-12-09T11:12:09.080Z,93.3
2018-12-09T11:13:21.263Z,92.8
2018-12-09T11:14:33.466Z,92.8
2018-12-09T11:15:45.661Z,92.7
2018-12-09T11:16:57.782Z,92.8
2018-12-09T11:18:09.893Z,92
2018-12-09T11:19:22.104Z,92.8
2018-12-09T11:20:34.468Z,92.7
2018-12-09T11:21:46.478Z,92.7
2018-12-09T11:22:58.749Z,92.8
2018-12-09T11:24:10.874Z,92.1
2018-12-09T11:25:23.155Z,92.7
2018-12-09T11:26:35.259Z,92.1
2018-12-09T11:27:47.452Z,91.8
2018-12-09T11:28:59.807Z,91.6
2018-12-09T11:30:11.873Z,91.9
2018-12-09T11:31:24.110Z,91.3
2018-12-09T11:32:36.385Z,91.2
2018-12-09T11:33:48.421Z,91.6
2018-12-09T11:35:00.622Z,92.3
2018-12-09T11:36:12.873Z,91.8
2018-12-09T11:37:25.085Z,92.3
2018-12-09T11:38:37.260Z,92
2018-12-09T11:39:49.461Z,92.1
2018-12-09T11:41:01.750Z,91.7
2018-12-09T11:42:13.845Z,91.7
2018-12-09T11:43:26.126Z,91.5
2018-12-09T11:44:38.323Z,92.1
2018-12-09T11:45:50.425Z,91.7
2018-12-09T11:47:02.615Z,91.5
2018-12-09T11:48:14.741Z,91.3
2018-12-09T11:49:27.035Z,91.2
2018-12-09T11:50:39.274Z,91.4
2018-12-09T11:51:51.425Z,91.8
2018-12-09T11:53:03.590Z,92
2018-12-09T11:54:15.785Z,92.8
2018-12-09T11:55:27.910Z,92.4
2018-12-09T11:56:40.193Z,91.7
2018-12-09T11:57:52.368Z,92.2
2018-12-09T11:59:04.595Z,92.4
2018-12-09T12:00:16.754Z,92.8
2018-12-09T12:01:28.971Z,92.7
2018-12-09T12:02:41.134Z,92.5
2018-12-09T12:03:53.259Z,92.1
2018-12-09T12:05:05.533Z,92.4
2018-12-09T12:06:17.656Z,92.4
2018-12-09T12:07:29.851Z,91.8
2018-12-09T12:08:42.243Z,92.1
2018-12-09T12:09:54.299Z,92.7
2018-12-09T12:11:06.513Z,92.5
2018-12-09T12:12:18.814Z,92.2
2018-12-09T12:13:30.806Z,91.9
2018-12-09T12:14:43.264Z,92.3
2018-12-09T12:15:55.275Z,92.4
2018-12-09T12:17:07.390Z,92.3
2018-12-09T12:18:19.666Z,91.8
2018-12-09T12:19:31.849Z,91
2018-12-09T12:20:44.064Z,91.3
2018-12-09T12:21:56.253Z,91.3
2018-12-09T12:23:08.359Z,91.8
2018-12-09T12:24:20.566Z,91.4
2018-12-09T12:25:32.822Z,91.5
2018-12-09T12:26:45.106Z,92
2018-12-09T12:27:57.133Z,91.5
2018-12-09T12:29:09.485Z,91.9
2018-12-09T12:30:21.517Z,91.8
2018-12-09T12:31:33.829Z,91.8
2018-12-09T12:32:45.993Z,92
2018-12-09T12:33:58.104Z,92.2
2018-12-09T12:35:10.381Z,92
2018-12-09T12:36:22.570Z,92.2
2018-12-09T12:37:35.113Z,92
2018-12-09T12:38:47.041Z,91.4
2018-12-09T12:39:59.144Z,92
2018-12-09T12:41:11.288Z,91.9
2018-12-09T12:42:23.532Z,92.5
2018-12-09T12:43:35.728Z,92.5
2018-12-09T12:44:48.038Z,92
2018-12-09T12:46:00.056Z,92.1
2018-12-09T12:47:12.325Z,92.3
2018-12-09T12:48:24.606Z,92.2
2018-12-09T12:49:36.703Z,92.3
2018-12-09T12:50:48.900Z,92.5
2018-12-09T12:52:01.103Z,92.6
2018-12-09T12:53:13.225Z,92.7
2018-12-09T12:54:25.496Z,92.3
2018-12-09T12:55:37.704Z,92
2018-12-09T12:56:49.897Z,92.3
2018-12-09T12:58:02.082Z,92.5
2018-12-09T12:59:14.195Z,92.1
2018-12-09T13:00:26.527Z,92.1
2018-12-09T13:01:38.674Z,92.6
2018-12-09T13:02:50.858Z,92.6
2018-12-09T13:04:02.975Z,92.5
2018-12-09T13:05:15.254Z,92.6
2018-12-09T13:06:27.460Z,92.2
2018-12-09T13:07:39.645Z,92.4
2018-12-09T13:08:51.915Z,92.6
2018-12-09T13:10:04.196Z,92.9
2018-12-09T13:11:16.191Z,93.8
2018-12-09T13:12:28.339Z,95
2018-12-09T13:13:40.715Z,94.6
2018-12-09T13:14:52.799Z,95
2018-12-09T13:16:05.009Z,95.6
2018-12-09T13:17:17.127Z,96.1
2018-12-09T13:18:29.321Z,96.4
2018-12-09T13:19:41.591Z,96.7
2018-12-09T13:20:53.880Z,96.8
2018-12-09T13:22:06.082Z,97
2018-12-09T13:23:18.113Z,97.3
2018-12-09T13:24:30.367Z,97.3
2018-12-09T13:25:42.490Z,97.4
2018-12-09T13:26:54.683Z,97.6
2018-12-09T13:28:06.967Z,97.8
2018-12-09T13:29:19.103Z,97.9
2018-12-09T13:30:31.271Z,98
2018-12-09T13:31:43.485Z,98.1
2018-12-09T13:32:55.849Z,98.2
2018-12-09T13:34:07.930Z,98.2
2018-12-09T13:35:20.054Z,98.2
2018-12-09T13:36:32.314Z,98.3
2018-12-09T13:37:44.522Z,98.3
2018-12-09T13:38:56.699Z,98.5
2018-12-09T13:40:08.939Z,98.5
2018-12-09T13:41:21.064Z,98.5
2018-12-09T13:42:33.226Z,98.5
2018-12-09T13:43:45.414Z,98.5
2018-12-09T13:44:57.811Z,98.5
2018-12-09T13:46:09.809Z,98.5
2018-12-09T13:47:22.010Z,98.7
2018-12-09T13:48:34.288Z,98.7
2018-12-09T13:49:46.399Z,98.7
2018-12-09T13:50:58.691Z,98.7
2018-12-09T13:52:10.864Z,98.7
2018-12-09T13:53:23.662Z,98.7
2018-12-09T13:54:35.289Z,98.7
2018-12-09T13:55:47.462Z,98.8
2018-12-09T13:56:59.730Z,98.8
2018-12-09T13:58:11.790Z,98.8
2018-12-09T13:59:23.964Z,98.8
2018-12-09T14:00:36.245Z,98.8
2018-12-09T14:01:48.440Z,98.9
2018-12-09T14:03:00.610Z,98.9
2018-12-09T14:04:12.815Z,98.9
2018-12-09T14:05:25.018Z,98.9
2018-12-09T14:06:37.146Z,98.9
2018-12-09T14:07:49.391Z,99
2018-12-09T14:09:01.684Z,99
2018-12-09T14:10:13.782Z,99
2018-12-09T14:11:25.908Z,99
2018-12-09T14:12:38.181Z,99
2018-12-09T14:13:50.434Z,98.9
2018-12-09T14:15:02.506Z,99
2018-12-09T14:16:14.700Z,98.9
2018-12-09T14:17:26.892Z,98.9
2018-12-09T14:18:39.268Z,98.9
2018-12-09T14:19:51.289Z,98.9
2018-12-09T14:21:03.791Z,98.9
2018-12-09T14:22:15.701Z,98.9
2018-12-09T14:23:27.862Z,98.9
2018-12-09T14:24:40.062Z,98.8
2018-12-09T14:25:52.261Z,98.7
2018-12-09T14:27:04.522Z,98.8
2018-12-09T14:28:16.695Z,98.8
2018-12-09T14:29:28.914Z,98.8
2018-12-09T14:30:41.123Z,98.7
2018-12-09T14:31:53.314Z,98.7
2018-12-09T14:33:05.579Z,98.5
2018-12-09T14:34:17.762Z,98.5
2018-12-09T14:35:29.818Z,98.5
2018-12-09T14:36:42.109Z,98.5
2018-12-09T14:37:54.216Z,98.5
2018-12-09T14:39:06.394Z,98.5
2018-12-09T14:40:18.595Z,98.5
2018-12-09T14:41:30.787Z,98.5
2018-12-09T14:42:43.061Z,98.5
2018-12-09T14:43:55.262Z,98.5
2018-12-09T14:45:07.465Z,98.7
2018-12-09T14:46:19.572Z,98.7
2018-12-09T14:47:31.762Z,98.5
2018-12-09T14:48:44.114Z,98.7
2018-12-09T14:49:56.158Z,98.7
2018-12-09T14:51:08.433Z,98.7
2018-12-09T14:52:24.119Z,98.7
2018-12-09T14:53:32.917Z,98.5
2018-12-09T14:54:45.031Z,98.7
2018-12-09T14:55:57.206Z,98.5
2018-12-09T14:57:09.493Z,98.5
2018-12-09T14:58:21.595Z,98.5
2018-12-09T14:59:33.809Z,98.5
2018-12-09T15:00:45.942Z,98.4
2018-12-09T15:01:58.202Z,98.4
2018-12-09T15:03:10.381Z,98.4
2018-12-09T15:04:22.584Z,98.3
2018-12-09T15:05:34.695Z,98.3
2018-12-09T15:06:46.962Z,98.2
2018-12-09T15:07:59.200Z,98.2
2018-12-09T15:09:11.441Z,98.2
2018-12-09T15:10:23.561Z,98.3
2018-12-09T15:11:35.674Z,98.3
2018-12-09T15:12:47.880Z,98.3
2018-12-09T15:14:00.163Z,98.3
2018-12-09T15:15:12.357Z,98.3
2018-12-09T15:16:24.453Z,98.3
2018-12-09T15:17:36.689Z,98.3
2018-12-09T15:18:48.856Z,98.3
2018-12-09T15:20:01.046Z,98.4
2018-12-09T15:21:13.301Z,98.3
2018-12-09T15:22:25.495Z,98.3
2018-12-09T15:23:37.622Z,98.4
2018-12-09T15:24:49.827Z,98.4
2018-12-09T15:26:02.114Z,98.4
2018-12-09T15:27:14.289Z,98.4
2018-12-09T15:28:26.497Z,98.4
2018-12-09T15:29:38.685Z,98.4
2018-12-09T15:30:50.860Z,98.4
2018-12-09T15:32:03.077Z,98.4
2018-12-09T15:33:15.302Z,98.5
2018-12-09T15:34:27.381Z,98.5
2018-12-09T15:35:39.652Z,98.5
2018-12-09T15:36:51.851Z,98.5
2018-12-09T15:38:03.969Z,98.5
2018-12-09T15:39:16.233Z,98.5
2018-12-09T15:40:28.442Z,98.5
2018-12-09T15:41:40.673Z,98.5
2018-12-09T15:42:52.751Z,98.5
2018-12-09T15:44:04.938Z,98.5
2018-12-09T15:45:17.232Z,98.5
2018-12-09T15:46:29.832Z,98.7
2018-12-09T15:47:41.606Z,98.7
2018-12-09T15:48:53.794Z,98.5
2018-12-09T15:50:05.994Z,98.5
2018-12-09T15:51:18.281Z,98.4
2018-12-09T15:52:30.386Z,98.4
2018-12-09T15:53:42.575Z,98.4
2018-12-09T15:54:54.790Z,98.4
2018-12-09T15:56:06.895Z,98.4
2018-12-09T15:57:19.283Z,98.3
2018-12-09T15:58:31.392Z,98.2
2018-12-09T15:59:43.559Z,98.1
2018-12-09T16:00:55.835Z,98.1
2018-12-09T16:02:09.128Z,98.1
2018-12-09T16:03:20.138Z,98.1
2018-12-09T16:04:32.359Z,97.9
2018-12-09T16:05:44.549Z,97.9
2018-12-09T16:06:56.764Z,97.9
2018-12-09T16:08:08.931Z,97.9